Time;durP1;ratioP1;P1;durP2;ratioP2;P2;SDS_P1;SDS_P2;PMS_P1;PMS_P2;Temp;Humidity;BMP_temperature;BMP_pressure;BME280_temperature;BME280_humidity;BME280_pressure;Samples;Min_cycle;Max_cycle;Signal;HPM_P1;HPM_P2
2023/10/24 00:03:41;;;;;;;5.45;2.28;;;;;;;12.35;69.16;98886.25;10291672;28;21543;-59
2023/10/24 00:08:43;;;;;;;3.05;1.95;;;;;;;12.20;69.48;98887.47;10298751;28;20050;-58
2023/10/24 00:13:45;;;;;;;3.75;1.90;;;;;;;12.32;69.65;98890.88;10298704;28;20042;-59
2023/10/24 00:18:47;;;;;;;4.05;2.00;;;;;;;12.52;69.26;98896.13;10262855;28;20047;-59
2023/10/24 00:23:49;;;;;;;7.53;1.80;;;;;;;12.56;69.22;98899.31;10298882;28;20042;-59
2023/10/24 00:28:51;;;;;;;4.03;2.00;;;;;;;12.68;68.88;98893.88;10297278;28;20058;-59
2023/10/24 00:33:53;;;;;;;3.42;1.88;;;;;;;12.73;68.70;98881.22;10265277;28;20414;-59
2023/10/24 00:38:55;;;;;;;3.50;1.52;;;;;;;12.74;68.39;98888.09;10299242;28;20046;-58
2023/10/24 00:43:57;;;;;;;3.35;1.80;;;;;;;12.72;68.62;98895.28;10297296;28;20500;-58
2023/10/24 00:48:59;;;;;;;5.10;2.00;;;;;;;12.77;68.38;98879.16;10281192;28;20876;-58
2023/10/24 00:54:02;;;;;;;3.03;1.60;;;;;;;12.70;68.48;98876.22;10264910;28;20042;-59
2023/10/24 00:59:06;;;;;;;3.65;1.77;;;;;;;12.58;68.44;98874.63;10299142;28;20336;-59
2023/10/24 01:04:08;;;;;;;3.78;1.90;;;;;;;12.42;68.69;98892.63;10279791;28;20340;-59
2023/10/24 01:09:11;;;;;;;3.95;1.88;;;;;;;12.29;68.76;98885.91;10274897;28;20050;-58
2023/10/24 01:14:12;;;;;;;3.50;1.80;;;;;;;12.29;68.82;98881.50;10281209;28;20502;-58
2023/10/24 01:19:15;;;;;;;3.25;2.10;;;;;;;12.15;69.14;98868.66;10297562;28;20348;-59
2023/10/24 01:24:17;;;;;;;25.75;4.07;;;;;;;11.88;69.54;98849.97;10264692;28;20522;-59
2023/10/24 01:29:19;;;;;;;5.38;1.90;;;;;;;11.83;69.62;98868.69;10298727;28;20529;-58
2023/10/24 01:34:21;;;;;;;5.75;1.80;;;;;;;11.79;69.83;98861.19;10296173;28;20074;-59
2023/10/24 01:39:23;;;;;;;10.50;2.45;;;;;;;11.91;69.85;98868.06;10280895;28;20115;-58
2023/10/24 01:44:25;;;;;;;3.72;2.65;;;;;;;11.97;69.77;98864.94;10298411;28;20030;-58
2023/10/24 01:49:28;;;;;;;4.10;2.08;;;;;;;12.12;69.40;98872.38;10296437;28;20414;-58
2023/10/24 01:54:30;;;;;;;4.57;2.35;;;;;;;12.18;69.24;98863.16;10295722;28;20057;-58
2023/10/24 01:59:31;;;;;;;3.92;1.90;;;;;;;12.22;68.94;98848.00;10258619;28;20050;-59
2023/10/24 02:04:33;;;;;;;5.05;2.20;;;;;;;12.14;69.13;98846.88;10286064;28;20046;-59
2023/10/24 02:09:37;;;;;;;3.95;2.33;;;;;;;12.19;69.38;98854.38;10285390;28;20533;-58
2023/10/24 02:14:39;;;;;;;3.22;1.80;;;;;;;12.19;69.06;98843.03;10286023;28;20038;-58
2023/10/24 02:19:41;;;;;;;5.47;2.17;;;;;;;12.22;69.01;98830.50;10318251;28;20046;-58
2023/10/24 02:24:43;;;;;;;2.80;1.73;;;;;;;12.13;69.25;98839.13;10301875;28;20324;-59
2023/10/24 02:29:45;;;;;;;3.78;2.03;;;;;;;12.15;69.09;98842.44;10301907;28;20035;-59
2023/10/24 02:34:49;;;;;;;3.95;2.20;;;;;;;12.11;69.38;98843.66;10302284;28;20050;-58
2023/10/24 02:39:52;;;;;;;3.63;1.75;;;;;;;12.14;69.28;98854.75;10299709;28;20068;-58
2023/10/24 02:44:54;;;;;;;6.28;1.75;;;;;;;12.07;69.39;98840.47;10302158;28;20117;-58
2023/10/24 02:49:56;;;;;;;3.55;2.15;;;;;;;12.12;69.36;98842.72;10296342;28;20046;-58
2023/10/24 02:54:58;;;;;;;3.70;2.13;;;;;;;12.18;69.49;98860.53;10301911;28;20410;-59
2023/10/24 03:00:00;;;;;;;3.30;1.88;;;;;;;12.23;69.32;98832.19;10297084;28;20555;-58
2023/10/24 03:05:03;;;;;;;4.07;1.98;;;;;;;12.30;69.19;98843.00;10298847;28;20053;-58
2023/10/24 03:10:06;;;;;;;6.97;2.53;;;;;;;12.36;68.87;98838.06;10296071;28;20053;-59
2023/10/24 03:15:08;;;;;;;3.60;2.22;;;;;;;12.31;69.05;98842.88;10295064;28;20541;-59
2023/10/24 03:20:10;;;;;;;5.90;2.53;;;;;;;12.31;68.98;98839.41;10294307;28;20418;-58
2023/10/24 03:25:13;;;;;;;5.38;2.15;;;;;;;12.22;69.38;98829.66;10276948;28;20061;-58
2023/10/24 03:30:15;;;;;;;4.00;2.20;;;;;;;12.00;69.72;98828.00;10298119;28;20089;-59
2023/10/24 03:35:17;;;;;;;3.85;2.00;;;;;;;11.89;70.12;98862.94;10277712;28;20317;-58
2023/10/24 03:40:21;;;;;;;4.63;2.35;;;;;;;11.73;70.63;98845.97;10361722;28;20494;-58
2023/10/24 03:45:23;;;;;;;5.13;2.70;;;;;;;11.79;70.52;98864.66;10302166;28;20111;-59
2023/10/24 03:50:26;;;;;;;4.28;2.28;;;;;;;11.97;70.31;98859.69;10301941;28;20137;-59
2023/10/24 03:55:27;;;;;;;5.13;2.42;;;;;;;12.15;69.72;98866.03;10302121;28;20145;-59
2023/10/24 04:00:30;;;;;;;6.70;2.88;;;;;;;12.23;69.83;98866.25;10303086;28;20698;-59
2023/10/24 04:05:33;;;;;;;4.22;2.17;;;;;;;12.36;69.50;98856.41;10300584;28;20052;-59
2023/10/24 04:10:35;;;;;;;7.45;2.20;;;;;;;12.43;69.21;98859.38;10302044;28;20077;-59
2023/10/24 04:15:37;;;;;;;3.88;2.15;;;;;;;12.46;69.21;98862.56;10301550;28;20178;-59
2023/10/24 04:20:42;;;;;;;3.70;1.95;;;;;;;12.49;69.02;98857.06;10301320;28;20293;-59
2023/10/24 04:25:44;;;;;;;2.38;1.70;;;;;;;12.50;68.96;98848.22;10299505;28;20434;-59
2023/10/24 04:30:46;;;;;;;3.60;1.88;;;;;;;12.53;68.75;98858.47;10349873;28;20482;-59
2023/10/24 04:35:50;;;;;;;4.45;2.40;;;;;;;12.60;68.83;98854.34;10298376;28;20443;-59
2023/10/24 04:40:52;;;;;;;4.40;2.20;;;;;;;12.56;68.77;98842.44;10300135;28;20054;-59
2023/10/24 04:45:55;;;;;;;4.30;1.90;;;;;;;12.47;68.93;98838.00;10300810;28;20465;-59
2023/10/24 04:50:57;;;;;;;5.75;1.98;;;;;;;12.45;68.90;98828.59;10268907;28;20054;-59
2023/10/24 04:55:58;;;;;;;5.50;2.10;;;;;;;12.32;69.04;98828.81;10298847;28;20054;-59
2023/10/24 05:01:01;;;;;;;3.13;1.80;;;;;;;12.24;69.00;98830.38;10300561;28;20045;-59
2023/10/24 05:06:03;;;;;;;4.07;2.33;;;;;;;12.20;69.07;98824.56;10301809;28;20070;-59
2023/10/24 05:11:05;;;;;;;12.90;2.70;;;;;;;12.05;69.26;98826.66;10299333;28;20039;-59
2023/10/24 05:16:07;;;;;;;19.02;2.97;;;;;;;11.97;69.61;98818.59;10298857;28;20407;-59
2023/10/24 05:21:09;;;;;;;2.47;1.70;;;;;;;11.95;69.36;98814.44;10299701;28;20749;-59
2023/10/24 05:26:10;;;;;;;3.78;2.13;;;;;;;11.96;69.29;98803.03;10297888;28;20559;-59
2023/10/24 05:31:12;;;;;;;15.73;2.83;;;;;;;11.91;69.19;98792.91;10299516;28;20046;-59
2023/10/24 05:36:16;;;;;;;48.58;4.55;;;;;;;11.73;69.56;98783.13;10300888;28;20525;-59
2023/10/24 05:41:18;;;;;;;41.65;4.53;;;;;;;11.73;69.71;98764.78;10298213;28;20057;-59
2023/10/24 05:46:20;;;;;;;3.72;2.00;;;;;;;11.80;69.55;98763.34;10299345;28;20050;-59
2023/10/24 05:51:27;;;;;;;3.00;1.90;;;;;;;11.80;69.44;98768.56;10298119;28;20349;-59
2023/10/24 05:56:32;;;;;;;5.90;1.95;;;;;;;11.77;69.48;98763.56;10298432;28;20609;-59
2023/10/24 06:01:34;;;;;;;7.47;1.90;;;;;;;11.82;69.47;98779.75;10298285;28;20042;-59
2023/10/24 06:06:36;;;;;;;2.45;1.60;;;;;;;11.87;69.08;98788.03;10280201;28;20034;-59
2023/10/24 06:11:41;;;;;;;2.22;1.55;;;;;;;11.91;69.09;98792.91;10297359;28;20509;-59
2023/10/24 06:16:43;;;;;;;3.47;2.00;;;;;;;11.93;68.91;98795.41;10299630;28;20050;-59
2023/10/24 06:21:45;;;;;;;11.25;2.13;;;;;;;11.93;68.90;98798.84;10270108;28;20354;-59
2023/10/24 06:26:49;;;;;;;10.75;2.35;;;;;;;11.81;69.13;98789.41;10293762;28;20047;-59
2023/10/24 06:31:52;;;;;;;21.10;4.00;;;;;;;11.75;69.24;98795.16;10294836;28;20417;-59
2023/10/24 06:36:56;;;;;;;22.83;3.50;;;;;;;11.59;69.27;98791.28;10293889;28;20104;-59
2023/10/24 06:41:58;;;;;;;11.25;2.83;;;;;;;11.42;69.82;98790.03;10290292;28;20035;-59
2023/10/24 06:47:00;;;;;;;4.63;2.22;;;;;;;11.34;70.17;98783.78;10287146;28;20038;-59
2023/10/24 06:52:02;;;;;;;3.55;2.00;;;;;;;11.51;70.16;98770.13;10290445;28;20096;-59
2023/10/24 06:57:04;;;;;;;4.15;1.90;;;;;;;11.72;69.86;98776.25;10295047;28;20046;-59
2023/10/24 07:02:07;;;;;;;5.00;2.70;;;;;;;11.79;69.51;98787.84;10268709;28;20053;-59
2023/10/24 07:07:09;;;;;;;18.30;3.40;;;;;;;11.85;69.46;98792.59;10290598;28;20058;-59
2023/10/24 07:12:11;;;;;;;4.30;2.17;;;;;;;12.02;69.07;98786.78;10289847;28;20050;-59
2023/10/24 07:17:13;;;;;;;66.13;10.23;;;;;;;12.10;68.74;98793.06;10289851;28;20430;-59
2023/10/24 07:22:15;;;;;;;12.13;5.65;;;;;;;12.18;68.87;98795.03;10285487;28;20081;-59
2023/10/24 07:27:19;;;;;;;22.02;4.55;;;;;;;12.15;68.68;98796.09;10291030;28;20069;-59
2023/10/24 07:32:21;;;;;;;3.83;2.00;;;;;;;12.12;68.87;98798.16;10265440;28;20045;-59
2023/10/24 07:37:24;;;;;;;3.67;2.17;;;;;;;12.00;69.11;98797.41;10283369;28;20082;-61
2023/10/24 07:42:26;;;;;;;3.53;2.20;;;;;;;12.10;69.20;98802.69;10380672;28;20404;-61
2023/10/24 07:47:28;;;;;;;4.88;2.00;;;;;;;12.26;68.95;98802.22;10459262;28;20045;-61
2023/10/24 07:52:30;;;;;;;3.17;1.67;;;;;;;12.25;69.02;98806.66;10455313;28;20053;-61
2023/10/24 07:57:32;;;;;;;4.07;2.22;;;;;;;12.40;68.91;98820.28;10459422;28;20283;-61
2023/10/24 08:02:34;;;;;;;3.75;2.05;;;;;;;12.50;68.80;98814.13;10455625;28;20037;-61
2023/10/24 08:07:37;;;;;;;6.55;3.10;;;;;;;12.66;68.56;98819.72;10460152;28;20136;-61
2023/10/24 08:12:39;;;;;;;4.25;2.50;;;;;;;12.73;68.30;98813.00;10452401;28;20032;-61
2023/10/24 08:17:43;;;;;;;8.07;2.70;;;;;;;12.57;68.64;98807.41;10460489;28;20480;-60
2023/10/24 08:22:46;;;;;;;4.18;2.38;;;;;;;12.56;68.72;98818.00;10454254;28;20665;-60
2023/10/24 08:27:48;;;;;;;5.80;1.95;;;;;;;12.61;68.61;98827.16;10462569;28;20051;-61
2023/10/24 08:32:50;;;;;;;4.90;2.53;;;;;;;12.73;68.51;98835.78;10467155;28;20479;-60
2023/10/24 08:37:52;;;;;;;3.83;2.40;;;;;;;12.87;68.11;98820.50;10468019;28;20575;-60
2023/10/24 08:42:54;;;;;;;4.28;2.40;;;;;;;12.92;67.96;98838.50;10466111;28;20485;-60
2023/10/24 08:47:58;;;;;;;4.00;2.30;;;;;;;13.02;68.04;98838.50;10468276;28;20052;-60
2023/10/24 08:53:01;;;;;;;4.93;2.70;;;;;;;12.81;68.10;98842.03;10465824;28;20247;-60
2023/10/24 08:58:04;;;;;;;5.05;2.50;;;;;;;12.94;68.19;98839.19;10468718;28;20092;-61
2023/10/24 09:03:06;;;;;;;4.00;2.00;;;;;;;12.95;67.89;98825.09;10460957;28;20051;-60
2023/10/24 09:08:08;;;;;;;3.97;2.10;;;;;;;12.83;68.33;98823.53;10467097;28;20067;-61
2023/10/24 09:13:10;;;;;;;6.28;2.53;;;;;;;13.03;68.43;98825.25;10463030;28;20074;-60
2023/10/24 09:18:15;;;;;;;4.75;2.95;;;;;;;13.17;67.98;98824.88;10467428;28;20665;-60
2023/10/24 09:23:17;;;;;;;2.60;1.65;;;;;;;13.25;67.77;98811.09;10461344;28;20144;-60
2023/10/24 09:28:22;;;;;;;8.00;4.38;;;;;;;13.36;67.63;98806.53;10448529;28;20052;-60
2023/10/24 09:33:28;;;;;;;4.03;2.20;;;;;;;13.29;67.60;98807.22;10464259;28;20032;-60
2023/10/24 09:38:30;;;;;;;6.95;2.35;;;;;;;13.28;67.84;98809.00;10464855;28;20297;-61
2023/10/24 09:43:34;;;;;;;9.75;3.05;;;;;;;13.38;67.88;98807.22;10465843;28;20492;-61
2023/10/24 09:48:37;;;;;;;4.90;2.35;;;;;;;13.52;67.68;98801.59;10461701;28;20056;-61
2023/10/24 09:53:41;;;;;;;6.32;2.28;;;;;;;13.56;67.35;98792.47;10465213;28;20045;-60
2023/10/24 09:58:43;;;;;;;5.75;2.28;;;;;;;13.43;67.49;98780.59;10462262;28;20420;-61
2023/10/24 10:03:46;;;;;;;3.20;2.00;;;;;;;13.56;67.57;98781.97;10462645;28;20040;-61
2023/10/24 10:08:49;;;;;;;4.38;2.28;;;;;;;13.82;67.12;98784.06;10459769;28;20044;-60
2023/10/24 10:13:52;;;;;;;3.80;1.90;;;;;;;13.97;66.79;98780.00;10464592;28;20041;-61
2023/10/24 10:19:09;;;;;;;5.18;2.15;;;;;;;14.06;66.80;98779.19;10463872;28;20055;-60
2023/10/24 10:24:28;;;;;;;2.60;1.40;;;;;;;14.30;65.49;98761.13;10462649;28;20060;-60
2023/10/24 10:29:30;;;;;;;1.67;1.27;;;;;;;14.57;65.51;98748.03;10444891;28;20067;-61
2023/10/24 10:34:34;;;;;;;3.28;1.70;;;;;;;14.54;64.99;98741.25;10462071;28;20472;-61
2023/10/24 10:39:36;;;;;;;3.05;1.77;;;;;;;14.51;65.45;98733.66;10462317;28;20044;-60
2023/10/24 10:44:43;;;;;;;4.78;2.05;;;;;;;14.52;64.81;98719.53;10462693;28;20927;-61
2023/10/24 10:49:54;;;;;;;6.88;3.10;;;;;;;14.50;65.25;98712.75;10460166;28;20036;-61
2023/10/24 10:55:29;;;;;;;4.15;2.00;;;;;;;14.57;64.96;98712.00;10462423;28;20363;-61
2023/10/24 11:00:51;;;;;;;3.10;1.88;;;;;;;14.81;64.97;98700.13;10459966;28;20387;-61
2023/10/24 11:05:59;;;;;;;5.22;1.58;;;;;;;14.94;63.98;98701.41;10464286;28;20052;-61
2023/10/24 11:11:07;;;;;;;1.92;1.10;;;;;;;15.07;63.36;98693.16;10460436;28;20578;-61
2023/10/24 11:16:14;;;;;;;1.38;1.17;;;;;;;15.26;63.33;98693.03;10463651;28;20380;-60
2023/10/24 11:21:35;;;;;;;2.35;1.35;;;;;;;15.38;62.73;98665.47;10461917;28;20414;-61
2023/10/24 11:26:37;;;;;;;1.67;1.08;;;;;;;15.55;62.53;98677.78;10458907;28;20063;-60
2023/10/24 11:31:43;;;;;;;3.03;1.15;;;;;;;15.66;62.23;98672.28;10459958;28;20040;-60
2023/10/24 11:36:51;;;;;;;1.55;1.13;;;;;;;15.69;61.74;98663.25;10463179;28;20131;-61
2023/10/24 11:41:52;;;;;;;1.70;1.00;;;;;;;15.71;62.14;98669.19;10461618;28;20051;-61
2023/10/24 11:46:55;;;;;;;3.45;1.02;;;;;;;15.62;61.95;98662.22;10438271;28;20060;-61
2023/10/24 11:51:57;;;;;;;1.42;0.90;;;;;;;15.71;61.65;98662.13;10460012;28;20048;-60
2023/10/24 11:57:00;;;;;;;1.75;1.30;;;;;;;15.68;61.75;98665.06;10460867;28;20559;-61
2023/10/24 12:02:03;;;;;;;1.77;1.38;;;;;;;15.71;61.94;98653.38;10461896;28;20476;-61
2023/10/24 12:07:08;;;;;;;1.33;1.10;;;;;;;16.01;61.74;98653.75;10465458;28;20145;-60
2023/10/24 12:12:13;;;;;;;1.13;0.90;;;;;;;16.14;60.95;98658.59;10465877;28;20045;-60
2023/10/24 12:17:15;;;;;;;1.13;1.00;;;;;;;16.09;60.55;98653.78;10460849;28;20735;-61
2023/10/24 12:22:17;;;;;;;2.95;1.40;;;;;;;16.12;60.63;98648.19;10466579;28;20056;-60
2023/10/24 12:27:19;;;;;;;3.60;0.90;;;;;;;16.17;61.06;98652.97;10461384;28;20045;-61
2023/10/24 12:32:21;;;;;;;3.33;1.10;;;;;;;16.15;61.15;98650.50;10458754;28;20047;-61
2023/10/24 12:37:25;;;;;;;1.52;1.20;;;;;;;15.88;61.51;98647.22;10461882;28;20101;-61
2023/10/24 12:42:27;;;;;;;1.83;1.23;;;;;;;15.77;61.62;98644.84;10454133;28;20052;-61
2023/10/24 12:47:29;;;;;;;2.13;1.38;;;;;;;15.75;62.16;98639.75;10459881;28;20106;-61
2023/10/24 12:52:31;;;;;;;1.55;1.20;;;;;;;15.65;61.92;98640.81;10462317;28;20472;-61
2023/10/24 12:57:33;;;;;;;1.85;1.25;;;;;;;15.51;61.83;98638.75;10430899;28;20280;-61
2023/10/24 13:02:36;;;;;;;3.15;1.08;;;;;;;15.48;62.19;98634.59;10456549;28;20052;-61
2023/10/24 13:07:38;;;;;;;2.38;1.25;;;;;;;15.31;62.46;98623.09;10466992;28;20378;-61
2023/10/24 13:12:41;;;;;;;2.22;1.30;;;;;;;15.24;62.84;98623.88;10432034;28;20415;-61
2023/10/24 13:17:43;;;;;;;1.67;1.00;;;;;;;15.25;62.68;98623.69;10465368;28;20043;-63
2023/10/24 13:22:45;;;;;;;1.38;1.00;;;;;;;15.39;63.06;98622.31;10443996;28;20059;-61
2023/10/24 13:27:47;;;;;;;5.60;1.10;;;;;;;15.42;63.47;98619.38;10465160;28;20047;-60
2023/10/24 13:32:49;;;;;;;1.05;0.95;;;;;;;15.47;63.55;98616.28;10459341;28;20036;-61
2023/10/24 13:37:51;;;;;;;2.90;1.25;;;;;;;15.50;63.34;98622.13;10466601;28;20072;-61
2023/10/24 13:42:53;;;;;;;3.83;1.10;;;;;;;15.47;63.71;98621.56;10455131;28;20100;-61
2023/10/24 13:47:55;;;;;;;1.20;1.00;;;;;;;15.35;63.76;98620.97;10465192;28;20048;-60
2023/10/24 13:52:57;;;;;;;2.78;1.27;;;;;;;15.12;64.20;98654.03;10459151;28;20190;-60
2023/10/24 13:58:00;;;;;;;1.73;1.20;;;;;;;14.86;65.18;98653.16;10457111;28;20120;-61
2023/10/24 14:03:02;;;;;;;1.02;0.90;;;;;;;14.65;65.28;98650.78;10457151;28;20051;-60
2023/10/24 14:08:08;;;;;;;1.17;0.85;;;;;;;14.64;64.65;98638.59;10460080;28;20515;-60
2023/10/24 14:13:11;;;;;;;3.38;0.85;;;;;;;14.78;64.59;98645.16;10463267;28;20310;-61
2023/10/24 14:18:15;;;;;;;0.95;0.80;;;;;;;14.79;64.30;98658.16;10460778;28;20492;-60
2023/10/24 14:23:16;;;;;;;2.08;0.90;;;;;;;14.70;64.45;98655.56;10456395;28;20053;-61
2023/10/24 14:28:19;;;;;;;1.35;0.88;;;;;;;14.55;64.19;98650.81;10459567;28;20071;-61
2023/10/24 14:33:21;;;;;;;0.90;0.80;;;;;;;14.25;64.69;98653.72;10460285;28;20055;-61
2023/10/24 14:38:23;;;;;;;2.47;1.02;;;;;;;14.43;64.66;98645.91;10456689;28;20047;-61
2023/10/24 14:43:25;;;;;;;0.70;0.70;;;;;;;14.39;64.58;98642.72;10464366;28;20052;-61
2023/10/24 14:48:27;;;;;;;2.55;1.35;;;;;;;14.52;64.69;98645.88;10458042;28;20631;-61
2023/10/24 14:53:29;;;;;;;1.10;0.85;;;;;;;14.62;63.64;98655.50;10459894;28;20117;-61
2023/10/24 14:58:31;;;;;;;1.92;0.90;;;;;;;14.49;63.00;98656.66;10461884;28;20158;-61
2023/10/24 15:03:33;;;;;;;1.08;0.65;;;;;;;14.46;62.45;98666.63;10461469;28;20178;-61
2023/10/24 15:08:35;;;;;;;3.08;0.82;;;;;;;14.63;62.40;98667.69;10456024;28;20041;-61
2023/10/24 15:13:37;;;;;;;0.45;0.45;;;;;;;14.58;62.02;98666.31;10459943;28;20044;-61
2023/10/24 15:18:39;;;;;;;1.08;0.60;;;;;;;14.50;61.69;98673.28;10454002;28;20036;-61
2023/10/24 15:23:41;;;;;;;0.57;0.50;;;;;;;14.24;62.04;98657.34;10453046;28;20497;-61
2023/10/24 15:28:43;;;;;;;1.70;1.00;;;;;;;14.12;62.70;98655.03;10459255;28;20497;-61
2023/10/24 15:33:46;;;;;;;0.55;0.55;;;;;;;14.01;61.93;98661.28;10466601;28;20393;-61
2023/10/24 15:38:49;;;;;;;4.53;1.50;;;;;;;13.92;62.07;98672.69;10458454;28;20059;-61
2023/10/24 15:43:53;;;;;;;2.88;1.75;;;;;;;13.80;62.26;98667.75;10463329;28;20597;-60
2023/10/24 15:48:55;;;;;;;8.65;2.83;;;;;;;13.66;62.87;98669.81;10460319;28;20036;-61
2023/10/24 15:53:57;;;;;;;3.20;1.30;;;;;;;13.56;63.26;98676.06;10454795;28;20051;-61
2023/10/24 15:58:58;;;;;;;2.40;1.27;;;;;;;13.42;63.61;98681.72;10458061;28;20053;-61
2023/10/24 16:04:01;;;;;;;11.13;4.68;;;;;;;13.19;64.00;98675.13;10456613;28;20047;-61
2023/10/24 16:09:03;;;;;;;4.47;2.17;;;;;;;12.98;64.22;98678.66;10462572;28;20141;-61
2023/10/24 16:14:05;;;;;;;2.53;1.08;;;;;;;12.79;64.32;98673.41;10453470;28;20052;-61
2023/10/24 16:19:07;;;;;;;1.92;1.08;;;;;;;12.61;65.17;98674.19;10461591;28;20048;-61
2023/10/24 16:24:09;;;;;;;2.33;1.20;;;;;;;12.46;65.34;98680.78;10458589;28;20044;-61
2023/10/24 16:29:11;;;;;;;1.58;0.70;;;;;;;12.27;65.70;98688.56;10462971;28;20271;-61
2023/10/24 16:34:13;;;;;;;2.10;1.10;;;;;;;12.12;65.80;98690.69;10457128;28;20048;-60
2023/10/24 16:39:15;;;;;;;2.45;1.33;;;;;;;11.96;65.84;98691.19;10459223;28;20527;-61
2023/10/24 16:44:19;;;;;;;1.83;1.17;;;;;;;11.78;66.41;98705.84;10457865;28;20120;-61
2023/10/24 16:49:23;;;;;;;1.63;1.08;;;;;;;11.63;66.49;98698.41;10459520;28;20448;-61
2023/10/24 16:54:25;;;;;;;2.22;1.20;;;;;;;11.47;66.84;98713.75;10466796;28;20040;-61
2023/10/24 16:59:27;;;;;;;1.83;1.08;;;;;;;11.37;66.92;98723.31;10468551;28;20619;-61
2023/10/24 17:04:29;;;;;;;3.55;2.08;;;;;;;11.27;67.28;98728.47;10464671;28;20045;-61
2023/10/24 17:09:32;;;;;;;2.78;1.45;;;;;;;11.18;67.19;98735.28;10469109;28;20068;-61
2023/10/24 17:14:34;;;;;;;2.95;1.65;;;;;;;11.06;67.26;98725.81;10464727;28;20052;-61
2023/10/24 17:19:36;;;;;;;2.97;1.27;;;;;;;10.98;67.36;98732.56;10469438;28;20798;-59
2023/10/24 17:24:38;;;;;;;3.00;1.42;;;;;;;10.93;67.33;98734.75;10464439;28;20409;-59
2023/10/24 17:29:41;;;;;;;2.65;1.33;;;;;;;10.80;67.58;98732.28;10466270;28;20187;-59
2023/10/24 17:34:45;;;;;;;71.72;3.20;;;;;;;10.71;67.39;98730.38;10465865;28;20068;-60
2023/10/24 17:39:49;;;;;;;86.38;4.70;;;;;;;10.61;67.88;98729.44;10460867;28;20042;-60
2023/10/24 17:44:52;;;;;;;20.92;3.55;;;;;;;10.47;67.76;98734.91;10461122;28;20519;-59
2023/10/24 17:49:56;;;;;;;42.03;3.38;;;;;;;10.35;68.13;98728.03;10464422;28;20055;-59
2023/10/24 17:54:58;;;;;;;64.20;5.30;;;;;;;10.23;68.37;98727.22;10462539;28;20493;-59
2023/10/24 18:00:04;;;;;;;19.23;2.60;;;;;;;10.16;68.40;98723.41;10463072;28;20227;-59
2023/10/24 18:05:07;;;;;;;23.58;3.03;;;;;;;10.12;68.44;98713.28;10460736;28;20457;-59
2023/10/24 18:10:10;;;;;;;3.53;1.75;;;;;;;10.07;68.68;98716.28;10461211;28;20070;-59
2023/10/24 18:15:12;;;;;;;3.33;1.42;;;;;;;10.01;68.15;98723.75;10458984;28;20049;-59
2023/10/24 18:20:14;;;;;;;63.65;4.47;;;;;;;9.79;68.33;98729.75;10465666;28;20051;-59
2023/10/24 18:25:17;;;;;;;34.42;2.38;;;;;;;9.72;68.33;98730.34;10461660;28;21162;-59
2023/10/24 18:30:18;;;;;;;2.83;1.38;;;;;;;9.61;68.48;98729.34;10459952;28;20052;-59
2023/10/24 18:35:21;;;;;;;2.97;1.40;;;;;;;9.67;68.50;98725.44;10455937;28;20048;-59
2023/10/24 18:40:24;;;;;;;26.08;2.53;;;;;;;9.61;68.41;98726.72;10455257;28;20045;-59
2023/10/24 18:45:26;;;;;;;16.60;2.97;;;;;;;9.52;68.47;98727.41;10456417;28;20045;-59
2023/10/24 18:50:28;;;;;;;166.05;12.00;;;;;;;9.37;68.39;98733.75;10458399;28;20041;-59
2023/10/24 18:55:30;;;;;;;134.82;7.68;;;;;;;9.42;68.67;98731.63;10457224;28;20045;-59
2023/10/24 19:00:35;;;;;;;6.85;2.38;;;;;;;9.37;68.83;98727.72;10464114;28;20051;-59
2023/10/24 19:05:38;;;;;;;10.32;2.50;;;;;;;9.37;68.77;98738.97;10458654;28;20610;-59
2023/10/24 19:10:41;;;;;;;2.55;1.40;;;;;;;9.39;68.67;98747.53;10462989;28;20548;-59
2023/10/24 19:15:44;;;;;;;2.90;1.48;;;;;;;9.33;68.81;98753.19;10454254;28;20047;-59
2023/10/24 19:20:46;;;;;;;3.83;1.50;;;;;;;9.30;68.66;98750.81;10463469;28;20044;-59
2023/10/24 19:25:51;;;;;;;2.45;1.30;;;;;;;9.34;68.63;98754.84;10454500;28;20127;-60
2023/10/24 19:30:54;;;;;;;30.17;3.42;;;;;;;9.29;68.68;98767.41;10459349;28;22331;-59
2023/10/24 19:35:58;;;;;;;12.73;2.65;;;;;;;9.24;68.40;98758.25;10449717;28;20584;-59
2023/10/24 19:41:00;;;;;;;44.90;3.05;;;;;;;9.32;68.69;98777.59;10452120;28;20871;-59
2023/10/24 19:46:06;;;;;;;17.85;1.95;;;;;;;9.38;68.58;98771.94;10453064;28;20051;-59
2023/10/24 19:51:09;;;;;;;4.43;1.58;;;;;;;9.24;68.82;98779.13;10457757;28;20048;-59
2023/10/24 19:56:11;;;;;;;21.60;3.17;;;;;;;9.25;68.64;98786.84;10451559;28;20706;-59
2023/10/24 20:01:13;;;;;;;20.23;2.83;;;;;;;9.23;68.66;98785.28;10462221;28;20036;-59
2023/10/24 20:06:16;;;;;;;184.38;9.93;;;;;;;9.18;68.81;98790.00;10457314;28;20133;-59
2023/10/24 20:11:18;;;;;;;215.95;10.07;;;;;;;9.11;68.70;98789.63;10461304;28;20044;-59
2023/10/24 20:16:43;;;;;;;110.43;6.25;;;;;;;9.07;68.71;98797.75;10456976;28;20067;-59
2023/10/24 20:21:45;;;;;;;118.82;4.90;;;;;;;8.99;68.97;98795.72;10457412;28;20054;-59
2023/10/24 20:26:48;;;;;;;54.17;4.15;;;;;;;9.00;69.00;98799.97;10382259;28;20536;-59
2023/10/24 20:31:50;;;;;;;51.80;3.10;;;;;;;9.01;69.37;98795.59;10386712;28;20470;-59
2023/10/24 20:36:52;;;;;;;154.45;7.82;;;;;;;8.97;69.19;98794.16;10381362;28;20084;-59
2023/10/24 20:41:54;;;;;;;51.33;4.60;;;;;;;9.03;69.54;98791.09;10382995;28;20142;-59
2023/10/24 20:46:57;;;;;;;19.38;2.53;;;;;;;9.15;69.18;98788.44;10380927;28;20362;-59
2023/10/24 20:52:00;;;;;;;172.68;8.77;;;;;;;9.19;68.78;98789.91;10382438;28;20199;-59
2023/10/24 20:57:02;;;;;;;99.28;7.15;;;;;;;9.24;68.69;98797.41;10380483;28;20145;-59
2023/10/24 21:02:06;;;;;;;192.60;7.53;;;;;;;9.21;68.46;98806.28;10375361;28;20060;-59
2023/10/24 21:07:09;;;;;;;156.80;9.68;;;;;;;9.17;68.63;98798.78;10383061;28;20046;-59
2023/10/24 21:12:11;;;;;;;196.80;10.50;;;;;;;9.03;68.78;98802.38;10384957;28;20045;-59
2023/10/24 21:17:13;;;;;;;120.30;6.22;;;;;;;9.03;68.76;98799.75;10380884;28;20054;-59
2023/10/24 21:22:15;;;;;;;133.98;6.90;;;;;;;9.04;68.54;98804.03;10391859;28;20056;-59
2023/10/24 21:27:17;;;;;;;67.55;4.97;;;;;;;8.88;69.03;98798.22;10466058;28;20052;-58
2023/10/24 21:32:19;;;;;;;68.38;3.25;;;;;;;8.93;69.01;98800.53;10464958;28;20048;-59
2023/10/24 21:37:22;;;;;;;115.72;7.45;;;;;;;8.92;68.69;98799.69;10463602;28;20055;-59
2023/10/24 21:42:25;;;;;;;128.05;6.85;;;;;;;8.87;68.74;98800.97;10462961;28;20207;-59
2023/10/24 21:47:27;;;;;;;88.93;4.35;;;;;;;8.82;68.55;98809.09;10460696;28;20148;-59
2023/10/24 21:52:29;;;;;;;80.97;6.53;;;;;;;8.72;68.23;98811.53;10464773;28;20700;-59
2023/10/24 21:57:32;;;;;;;172.80;7.00;;;;;;;8.53;68.39;98805.91;10464715;28;20098;-59
2023/10/24 22:02:34;;;;;;;62.70;4.72;;;;;;;8.42;68.43;98805.84;10458030;28;20417;-59
2023/10/24 22:07:36;;;;;;;56.85;5.25;;;;;;;8.58;68.88;98803.00;10466400;28;20368;-59
2023/10/24 22:12:38;;;;;;;40.92;3.88;;;;;;;8.74;68.40;98796.59;10446446;28;20044;-58
2023/10/24 22:17:42;;;;;;;27.30;3.63;;;;;;;8.72;68.23;98797.66;10463165;28;20563;-58
2023/10/24 22:22:44;;;;;;;87.43;4.13;;;;;;;8.65;68.27;98792.03;10461856;28;20552;-58
2023/10/24 22:27:46;;;;;;;44.60;3.80;;;;;;;8.79;68.00;98798.91;10464460;28;20039;-59
2023/10/24 22:33:05;;;;;;;5.13;2.08;;;;;;;8.66;67.81;98804.13;10460994;28;20485;-58
2023/10/24 22:38:07;;;;;;;25.40;3.10;;;;;;;8.43;67.93;98806.63;10464514;28;20056;-58
2023/10/24 22:43:09;;;;;;;19.45;3.08;;;;;;;8.36;68.26;98815.84;10460698;28;20052;-58
2023/10/24 22:48:11;;;;;;;56.95;4.40;;;;;;;8.58;68.19;98821.22;10460427;28;20044;-58
2023/10/24 22:53:13;;;;;;;73.68;4.50;;;;;;;8.51;67.91;98812.16;10455348;28;20056;-58
2023/10/24 22:58:15;;;;;;;70.97;5.15;;;;;;;8.48;67.98;98820.19;10463622;28;20405;-58
2023/10/24 23:03:17;;;;;;;91.07;6.50;;;;;;;8.39;67.91;98802.56;10460185;28;20404;-58
2023/10/24 23:08:19;;;;;;;147.57;5.47;;;;;;;8.38;68.03;98800.94;10458586;28;20294;-58
2023/10/24 23:13:21;;;;;;;16.35;3.55;;;;;;;8.53;68.47;98805.06;10460503;28;20223;-59
2023/10/24 23:18:23;;;;;;;67.28;4.80;;;;;;;8.70;68.25;98809.94;10463343;28;20052;-59
2023/10/24 23:23:25;;;;;;;47.65;4.25;;;;;;;8.72;67.89;98802.84;10460308;28;20045;-59
2023/10/24 23:28:27;;;;;;;46.67;4.00;;;;;;;8.45;67.81;98805.59;10463621;28;20515;-59